Time;durP1;ratioP1;P1;durP2;ratioP2;P2;SDS_P1;SDS_P2;PMS_P1;PMS_P2;Temp;Humidity;BMP_temperature;BMP_pressure;BME280_temperature;BME280_humidity;BME280_pressure;Samples;Min_cycle;Max_cycle;Signal;HPM_P1;HPM_P2
2022/05/23 00:01:07;;;;;;;9.70;6.58;;;;;;;9.48;100.00;99200.36;1666066;84;21500;-70
2022/05/23 00:03:35;;;;;;;8.30;5.60;;;;;;;9.42;100.00;99189.22;1665910;86;21859;-72
2022/05/23 00:06:02;;;;;;;8.15;6.50;;;;;;;9.41;100.00;99190.16;1666304;86;21132;-70
2022/05/23 00:08:29;;;;;;;11.68;7.10;;;;;;;9.41;100.00;99198.05;1666095;86;21145;-71
2022/05/23 00:10:55;;;;;;;11.08;7.33;;;;;;;9.40;100.00;99202.05;1666047;86;21562;-71
2022/05/23 00:13:22;;;;;;;14.68;7.15;;;;;;;9.39;100.00;99199.89;1666389;86;21247;-70
2022/05/23 00:15:51;;;;;;;8.85;6.90;;;;;;;9.38;100.00;99196.85;1665883;86;21121;-71
2022/05/23 00:18:17;;;;;;;8.78;6.97;;;;;;;9.36;100.00;99200.04;1666108;86;21106;-70
2022/05/23 00:20:44;;;;;;;9.60;6.67;;;;;;;9.36;100.00;99202.67;1666150;86;21149;-70
2022/05/23 00:23:11;;;;;;;8.85;6.65;;;;;;;9.40;100.00;99205.98;1666411;86;21070;-70
2022/05/23 00:25:38;;;;;;;7.62;6.58;;;;;;;9.39;100.00;99202.52;1666068;86;21508;-70
2022/05/23 00:28:05;;;;;;;12.45;7.12;;;;;;;9.40;100.00;99202.05;1666577;86;21069;-70
2022/05/23 00:30:32;;;;;;;19.55;7.50;;;;;;;9.38;100.00;99200.80;1666212;86;21077;-70
2022/05/23 00:35:53;;;;;;;11.48;7.67;;;;;;;9.37;100.00;99201.73;1666248;86;21069;-69
2022/05/23 00:38:19;;;;;;;12.60;6.62;;;;;;;9.36;100.00;99206.61;1666506;86;21141;-69
2022/05/23 00:44:11;;;;;;;7.83;6.95;;;;;;;9.37;100.00;99205.67;1647026;86;21067;-69
2022/05/23 00:47:15;;;;;;;9.45;7.30;;;;;;;9.35;100.00;99195.69;1665908;84;21089;-70
2022/05/23 00:49:41;;;;;;;7.87;7.08;;;;;;;9.35;100.00;99200.95;1666238;86;21159;-70
2022/05/23 00:52:11;;;;;;;11.93;7.17;;;;;;;9.35;100.00;99202.27;1666345;86;21303;-70
2022/05/23 00:54:42;;;;;;;10.23;7.12;;;;;;;9.33;100.00;99215.93;1666063;86;21326;-70
2022/05/23 00:57:12;;;;;;;9.20;6.50;;;;;;;9.32;100.00;99211.61;1666449;86;21034;-69
2022/05/23 00:59:40;;;;;;;6.20;5.40;;;;;;;9.32;100.00;99215.55;1666674;86;21116;-70
2022/05/23 01:02:07;;;;;;;7.80;6.78;;;;;;;9.30;100.00;99216.55;1666395;86;21573;-70
2022/05/23 01:04:37;;;;;;;8.90;6.55;;;;;;;9.31;100.00;99221.72;1666032;85;21165;-70
2022/05/23 01:07:04;;;;;;;9.08;6.62;;;;;;;9.31;100.00;99226.97;1666320;86;21630;-70
2022/05/23 01:09:33;;;;;;;7.87;6.65;;;;;;;9.30;100.00;99231.00;1666027;86;21107;-68
2022/05/23 01:11:59;;;;;;;8.43;6.58;;;;;;;9.29;100.00;99237.16;1666398;86;21089;-70
2022/05/23 01:14:26;;;;;;;10.18;6.67;;;;;;;9.28;100.00;99238.95;1666231;86;21104;-69
2022/05/23 01:16:53;;;;;;;8.88;7.33;;;;;;;9.27;100.00;99245.13;1637370;86;21127;-70
2022/05/23 01:19:20;;;;;;;10.78;7.28;;;;;;;9.27;100.00;99247.77;1666085;86;21076;-70
2022/05/23 01:21:57;;;;;;;9.83;7.00;;;;;;;9.26;100.00;99251.30;1666399;86;21164;-69
2022/05/23 01:24:43;;;;;;;8.43;5.65;;;;;;;9.25;100.00;99252.23;1666151;86;21160;-70
2022/05/23 01:27:10;;;;;;;9.15;6.95;;;;;;;9.24;100.00;99253.98;1655704;86;21568;-70
2022/05/23 01:29:43;;;;;;;11.55;6.87;;;;;;;9.24;100.00;99258.39;1665831;86;21101;-70
2022/05/23 01:32:12;;;;;;;6.58;5.30;;;;;;;9.21;100.00;99254.59;1638803;86;21077;-70
2022/05/23 01:34:42;;;;;;;11.30;7.67;;;;;;;9.20;100.00;99254.19;1666004;86;21058;-70
2022/05/23 01:37:11;;;;;;;13.50;8.50;;;;;;;9.18;100.00;99253.44;1666325;86;21047;-70
2022/05/23 01:39:56;;;;;;;9.63;7.70;;;;;;;9.16;100.00;99252.65;1666274;86;21097;-70
2022/05/23 01:42:24;;;;;;;11.20;8.25;;;;;;;9.11;100.00;99253.29;1665868;85;21788;-69
2022/05/23 01:44:51;;;;;;;12.33;8.43;;;;;;;9.09;100.00;99255.13;1666034;86;21566;-70
2022/05/23 01:47:20;;;;;;;11.85;8.70;;;;;;;9.07;100.00;99263.57;1666109;84;21141;-71
2022/05/23 01:49:51;;;;;;;11.80;9.33;;;;;;;9.05;100.00;99261.00;1666216;86;21518;-70
2022/05/23 01:52:22;;;;;;;12.35;9.75;;;;;;;9.03;100.00;99265.00;1665708;85;21108;-70
2022/05/23 01:54:49;;;;;;;13.48;9.50;;;;;;;9.03;100.00;99266.31;1666471;86;22020;-70
2022/05/23 01:57:15;;;;;;;15.58;10.35;;;;;;;9.02;100.00;99267.25;1666318;86;22223;-70
2022/05/23 02:02:28;;;;;;;17.85;10.63;;;;;;;9.00;100.00;99273.48;1666229;86;21132;-70
2022/05/23 02:04:55;;;;;;;10.80;8.48;;;;;;;9.00;100.00;99270.86;1666407;86;21149;-69
2022/05/23 02:07:22;;;;;;;11.28;7.95;;;;;;;9.00;100.00;99271.71;1666146;86;21209;-70
2022/05/23 02:09:50;;;;;;;11.55;9.40;;;;;;;8.99;100.00;99274.39;1666145;86;21146;-70
2022/05/23 02:12:21;;;;;;;14.25;9.83;;;;;;;8.98;100.00;99276.17;1666374;86;21021;-69
2022/05/23 02:14:50;;;;;;;10.32;8.85;;;;;;;8.98;100.00;99286.68;1666088;86;21613;-70
2022/05/23 02:17:34;;;;;;;14.87;10.65;;;;;;;8.98;100.00;99278.80;1665921;85;22519;-69
2022/05/23 02:20:03;;;;;;;14.30;11.00;;;;;;;8.97;100.00;99274.48;1666178;86;21197;-69
2022/05/23 02:22:30;;;;;;;14.13;11.60;;;;;;;8.98;100.00;99281.89;1666122;86;21097;-70
2022/05/23 02:25:02;;;;;;;13.00;9.33;;;;;;;8.96;100.00;99285.05;1665573;85;22183;-69
2022/05/23 02:27:32;;;;;;;20.00;10.75;;;;;;;8.94;100.00;99282.47;1666184;86;21105;-69
2022/05/23 02:29:59;;;;;;;12.03;9.28;;;;;;;8.95;100.00;99285.51;1666052;86;21141;-70
2022/05/23 02:32:27;;;;;;;12.88;9.85;;;;;;;8.94;100.00;99286.41;1666269;86;21251;-70
2022/05/23 02:34:57;;;;;;;12.73;9.00;;;;;;;8.93;100.00;99287.34;1666098;86;21129;-70
2022/05/23 02:37:24;;;;;;;11.68;8.93;;;;;;;8.93;100.00;99288.66;1666205;86;21620;-69
2022/05/23 02:39:52;;;;;;;10.53;8.28;;;;;;;8.94;100.00;99286.88;1666332;86;21097;-68
2022/05/23 02:42:19;;;;;;;12.05;7.67;;;;;;;8.94;100.00;99290.35;1666210;86;21092;-69
2022/05/23 02:44:47;;;;;;;11.85;10.15;;;;;;;8.95;100.00;99291.20;1666079;86;21231;-70
2022/05/23 02:47:16;;;;;;;11.25;9.20;;;;;;;8.95;100.00;99294.70;1669569;85;21106;-70
2022/05/23 02:49:43;;;;;;;12.60;9.13;;;;;;;8.98;100.00;99298.50;1690951;84;21052;-70
2022/05/23 02:52:11;;;;;;;13.78;8.98;;;;;;;8.99;100.00;99300.66;1690476;84;21076;-69
2022/05/23 02:54:40;;;;;;;9.70;8.20;;;;;;;9.00;100.00;99303.22;1687230;84;21075;-70
2022/05/23 02:57:06;;;;;;;13.70;8.58;;;;;;;9.01;100.00;99311.48;1691071;84;21232;-69
2022/05/23 02:59:34;;;;;;;12.85;7.85;;;;;;;9.02;100.00;99311.89;1690775;84;21055;-70
2022/05/23 03:04:50;;;;;;;9.65;7.25;;;;;;;9.00;100.00;99315.04;1690826;84;21116;-69
2022/05/23 03:07:18;;;;;;;8.53;6.20;;;;;;;9.02;100.00;99314.98;1690928;84;21128;-71
2022/05/23 03:09:48;;;;;;;8.73;7.47;;;;;;;9.03;100.00;99318.84;1688512;84;21240;-71
2022/05/23 03:12:16;;;;;;;8.68;6.85;;;;;;;9.03;100.00;99316.21;1690739;84;21120;-71
2022/05/23 03:14:43;;;;;;;9.85;7.53;;;;;;;9.04;100.00;99322.31;1690867;84;21044;-70
2022/05/23 03:17:10;;;;;;;10.98;6.90;;;;;;;9.06;100.00;99327.04;1690995;84;21150;-69
2022/05/23 03:19:38;;;;;;;10.98;8.35;;;;;;;9.08;100.00;99323.05;1691095;84;21089;-69
2022/05/23 03:27:39;;;;;;;12.37;8.55;;;;;;;9.21;100.00;99328.16;1691074;84;21608;-70
2022/05/23 03:30:08;;;;;;;13.72;8.60;;;;;;;9.30;100.00;99325.59;1689606;84;21051;-69
2022/05/23 03:32:39;;;;;;;11.53;8.35;;;;;;;9.37;100.00;99325.23;1690048;84;21115;-69
2022/05/23 03:35:07;;;;;;;10.15;8.20;;;;;;;9.46;100.00;99330.55;1691088;84;22014;-69
2022/05/23 03:37:35;;;;;;;11.75;8.25;;;;;;;9.56;100.00;99329.66;1691370;84;21107;-70
2022/05/23 03:40:06;;;;;;;12.78;8.50;;;;;;;9.70;100.00;99328.56;1690673;84;21667;-69
2022/05/23 03:42:34;;;;;;;9.43;6.72;;;;;;;9.75;100.00;99325.25;1691109;84;28699;-70
2022/05/23 03:45:01;;;;;;;11.25;7.75;;;;;;;9.82;100.00;99326.70;1690956;84;21083;-69
2022/05/23 03:47:31;;;;;;;11.12;7.28;;;;;;;9.95;100.00;99323.48;1690571;83;21119;-71
2022/05/23 03:50:01;;;;;;;13.88;10.15;;;;;;;10.05;100.00;99330.87;1690799;84;21640;-70
2022/05/23 03:52:27;;;;;;;11.93;8.53;;;;;;;10.13;100.00;99326.55;1690963;84;21613;-68
2022/05/23 03:54:54;;;;;;;15.18;9.40;;;;;;;10.18;100.00;99327.17;1691379;84;21547;-70
2022/05/23 03:57:23;;;;;;;17.48;9.70;;;;;;;10.27;100.00;99321.46;1664970;84;21608;-69
2022/05/23 03:59:50;;;;;;;11.55;9.23;;;;;;;10.51;100.00;99330.42;1690834;84;21257;-69
2022/05/23 04:02:16;;;;;;;15.05;8.68;;;;;;;10.89;100.00;99323.71;1690698;84;21571;-69
2022/05/23 04:04:43;;;;;;;10.90;7.87;;;;;;;11.43;100.00;99327.48;1690845;84;21085;-70
2022/05/23 04:07:30;;;;;;;12.35;7.80;;;;;;;12.01;100.00;99319.53;1691150;84;21128;-70
2022/05/23 04:09:58;;;;;;;11.83;7.35;;;;;;;12.56;100.00;99315.06;1690874;84;21589;-70
2022/05/23 04:12:27;;;;;;;9.63;6.75;;;;;;;12.98;100.00;99325.39;1691061;84;21167;-70
2022/05/23 04:14:54;;;;;;;12.15;7.05;;;;;;;13.28;100.00;99325.36;1686664;84;21541;-71
2022/05/23 04:17:23;;;;;;;10.70;6.72;;;;;;;13.64;100.00;99321.37;1670466;85;21203;-70
2022/05/23 04:19:50;;;;;;;12.15;7.70;;;;;;;13.99;100.00;99323.61;1670236;85;21057;-70
2022/05/23 04:22:18;;;;;;;10.43;6.55;;;;;;;14.34;100.00;99319.15;1670558;85;21844;-69
2022/05/23 04:24:46;;;;;;;10.60;6.72;;;;;;;14.64;100.00;99329.55;1680067;85;21569;-69
2022/05/23 04:27:14;;;;;;;10.45;6.40;;;;;;;14.96;100.00;99325.22;1680015;85;21642;-71
2022/05/23 04:29:41;;;;;;;10.82;6.87;;;;;;;15.05;97.21;99335.20;1677227;85;21407;-69
2022/05/23 04:35:15;;;;;;;10.05;6.78;;;;;;;14.88;95.73;99325.27;1680192;85;21136;-70
2022/05/23 04:37:48;;;;;;;11.38;7.00;;;;;;;14.85;97.69;99318.83;1680198;85;21250;-69
2022/05/23 04:40:23;;;;;;;14.35;6.80;;;;;;;15.15;97.41;99323.00;1680362;85;21065;-69
2022/05/23 04:42:50;;;;;;;14.53;6.05;;;;;;;15.47;96.18;99321.24;1679694;85;21065;-69
2022/05/23 04:45:17;;;;;;;11.45;5.97;;;;;;;15.87;93.25;99325.07;1680066;85;21073;-69
2022/05/23 04:50:33;;;;;;;8.30;5.35;;;;;;;16.50;89.07;99314.70;1702757;84;21227;-70
2022/05/23 04:53:01;;;;;;;9.70;6.17;;;;;;;16.75;86.66;99315.52;1699405;84;21492;-69
2022/05/23 04:55:28;;;;;;;11.20;6.33;;;;;;;16.84;84.54;99313.53;1699234;84;21588;-70
2022/05/23 04:57:59;;;;;;;16.25;6.50;;;;;;;16.82;83.81;99318.11;1698862;84;21078;-70
2022/05/23 05:00:29;;;;;;;6.78;5.35;;;;;;;16.89;82.77;99303.87;1699464;84;21073;-70
2022/05/23 05:03:00;;;;;;;7.15;5.45;;;;;;;16.93;81.86;99303.52;1698910;84;21580;-70
2022/05/23 05:05:29;;;;;;;7.50;5.35;;;;;;;17.12;81.43;99312.74;1698783;84;21010;-70
2022/05/23 05:07:57;;;;;;;9.43;5.25;;;;;;;17.37;79.88;99312.53;1703427;82;21077;-70
2022/05/23 05:10:24;;;;;;;9.90;5.28;;;;;;;17.49;78.60;99309.88;1704839;84;21045;-69
2022/05/23 05:12:51;;;;;;;15.18;6.20;;;;;;;17.64;78.10;99301.14;1704733;83;21068;-69
2022/05/23 05:15:20;;;;;;;9.10;5.50;;;;;;;17.68;74.69;99306.10;1704697;83;21111;-69
2022/05/23 05:17:47;;;;;;;9.25;5.33;;;;;;;17.69;76.24;99308.28;1704574;84;21198;-70
2022/05/23 05:20:14;;;;;;;6.33;4.92;;;;;;;17.75;75.51;99308.63;1651180;85;21058;-69
2022/05/23 05:23:00;;;;;;;6.65;4.70;;;;;;;17.69;75.55;99309.14;1666238;86;21946;-71
2022/05/23 05:25:28;;;;;;;9.35;5.72;;;;;;;17.50;74.42;99311.55;1626663;86;21089;-70
2022/05/23 05:28:00;;;;;;;7.35;4.97;;;;;;;17.38;75.22;99318.20;1666087;86;21082;-71
2022/05/23 05:30:27;;;;;;;9.05;6.30;;;;;;;17.17;75.38;99319.88;1666120;86;21654;-70
2022/05/23 05:33:04;;;;;;;10.35;6.12;;;;;;;16.94;76.11;99317.16;1666036;86;21168;-69
2022/05/23 05:35:48;;;;;;;11.18;5.97;;;;;;;16.83;77.56;99314.96;1665973;86;21581;-70
2022/05/23 05:38:31;;;;;;;11.90;6.75;;;;;;;16.74;78.43;99313.81;1637346;86;21121;-70
2022/05/23 05:41:04;;;;;;;12.60;6.22;;;;;;;16.63;78.84;99321.74;1627491;86;21247;-70
2022/05/23 05:43:37;;;;;;;11.63;6.33;;;;;;;16.57;79.51;99322.57;1666098;86;21145;-69
2022/05/23 05:46:16;;;;;;;11.93;5.80;;;;;;;16.66;80.13;99324.19;1666018;86;21564;-70
2022/05/23 05:48:51;;;;;;;10.58;5.75;;;;;;;16.78;79.08;99324.58;1666638;84;21113;-71
2022/05/23 05:51:20;;;;;;;9.18;5.47;;;;;;;17.04;79.47;99323.11;1681028;85;21652;-70
2022/05/23 05:53:58;;;;;;;12.13;5.72;;;;;;;17.34;77.92;99326.05;1621215;86;21204;-71
2022/05/23 05:56:26;;;;;;;8.63;5.60;;;;;;;17.61;76.52;99322.20;1669976;85;21112;-70
2022/05/23 05:58:53;;;;;;;13.32;6.42;;;;;;;17.80;74.47;99320.25;1632933;85;21060;-72
2022/05/23 06:01:19;;;;;;;10.68;5.60;;;;;;;17.88;74.16;99319.20;1671557;85;21775;-70
2022/05/23 06:03:47;;;;;;;7.35;5.42;;;;;;;18.09;74.27;99327.27;1680784;85;21064;-71
2022/05/23 06:11:49;;;;;;;8.28;5.08;;;;;;;18.50;69.87;99320.88;1671510;85;21106;-70
2022/05/23 06:14:18;;;;;;;8.48;4.90;;;;;;;18.74;67.44;99328.14;1680865;85;21817;-69
2022/05/23 06:16:46;;;;;;;10.30;5.42;;;;;;;18.74;66.97;99321.97;1647746;86;21083;-71
2022/05/23 06:19:24;;;;;;;9.65;5.10;;;;;;;18.65;67.61;99324.41;1670579;85;21187;-70
2022/05/23 06:22:05;;;;;;;12.65;4.85;;;;;;;18.65;66.38;99328.41;1681171;85;21084;-70
2022/05/23 06:24:33;;;;;;;8.78;5.17;;;;;;;18.66;65.62;99326.12;1671668;85;21100;-70
2022/05/23 06:27:02;;;;;;;7.22;4.80;;;;;;;18.62;66.45;99329.17;1680494;85;21105;-70
2022/05/23 06:29:40;;;;;;;6.33;4.30;;;;;;;18.78;66.12;99326.11;1649601;86;21068;-71
2022/05/23 06:32:24;;;;;;;4.85;3.58;;;;;;;19.07;65.11;99327.16;1669602;85;21943;-71
2022/05/23 06:34:51;;;;;;;9.18;4.25;;;;;;;19.55;63.13;99330.22;1656190;86;21125;-71
2022/05/23 06:37:20;;;;;;;5.67;3.75;;;;;;;20.07;59.30;99331.84;1680906;85;21120;-70
2022/05/23 06:39:47;;;;;;;7.58;3.15;;;;;;;20.49;57.36;99326.27;1671276;85;21069;-70
2022/05/23 06:42:23;;;;;;;5.25;3.15;;;;;;;20.76;53.74;99322.59;1680568;85;21068;-70
2022/05/23 06:45:10;;;;;;;5.60;3.02;;;;;;;20.89;53.30;99321.79;1671466;85;21348;-72
2022/05/23 06:47:55;;;;;;;8.13;3.22;;;;;;;21.13;51.68;99327.54;1680673;85;21041;-70
2022/05/23 06:50:39;;;;;;;8.80;3.37;;;;;;;21.23;52.91;99326.67;1623854;87;21116;-70
2022/05/23 06:53:11;;;;;;;4.50;2.90;;;;;;;21.32;51.35;99333.34;1704695;83;21022;-71
2022/05/23 06:55:43;;;;;;;7.53;3.50;;;;;;;21.43;50.29;99332.36;1704709;83;21010;-70
2022/05/23 06:58:11;;;;;;;4.33;2.80;;;;;;;21.52;49.46;99331.48;1704652;84;21122;-70
2022/05/23 07:00:39;;;;;;;7.45;3.55;;;;;;;21.47;48.13;99331.09;1704675;84;21101;-71
2022/05/23 07:03:08;;;;;;;7.87;2.90;;;;;;;21.44;48.84;99335.41;1704686;83;21006;-71
2022/05/23 07:14:03;;;;;;;5.60;2.55;;;;;;;21.61;46.36;99326.25;1704872;83;21097;-70
2022/05/23 07:16:32;;;;;;;9.28;3.10;;;;;;;21.52;44.82;99334.67;1704505;84;21101;-70
2022/05/23 07:18:59;;;;;;;4.83;2.30;;;;;;;21.50;44.33;99329.44;1704703;84;21034;-70
2022/05/23 07:21:27;;;;;;;3.65;2.60;;;;;;;21.55;43.24;99326.33;1705097;83;21511;-70
2022/05/23 07:24:09;;;;;;;8.95;2.77;;;;;;;21.37;44.00;99326.20;1704676;84;21153;-71
2022/05/23 07:26:49;;;;;;;7.03;2.20;;;;;;;21.26;44.97;99331.76;1704273;83;21111;-71
2022/05/23 07:29:17;;;;;;;3.08;2.20;;;;;;;21.10;43.31;99327.84;1704731;84;21129;-71
2022/05/23 07:31:44;;;;;;;6.67;2.50;;;;;;;20.95;43.43;99329.25;1704522;84;21061;-71
2022/05/23 07:34:11;;;;;;;4.92;2.40;;;;;;;20.87;44.27;99326.47;1704766;84;20999;-70
2022/05/23 07:36:38;;;;;;;5.75;2.40;;;;;;;20.71;44.62;99323.86;1704718;84;21218;-71
2022/05/23 07:39:10;;;;;;;6.00;2.70;;;;;;;20.64;44.84;99326.75;1705154;83;21062;-71
2022/05/23 07:41:40;;;;;;;2.92;2.12;;;;;;;20.62;44.92;99323.37;1704264;83;21094;-71
2022/05/23 07:44:08;;;;;;;5.17;2.90;;;;;;;20.82;44.36;99326.02;1705108;84;21026;-70
2022/05/23 07:46:35;;;;;;;4.70;2.47;;;;;;;21.15;45.08;99323.39;1704578;83;21101;-71
2022/05/23 07:49:02;;;;;;;5.58;2.70;;;;;;;21.48;44.76;99315.34;1706169;83;21164;-70
2022/05/23 07:51:30;;;;;;;3.62;2.25;;;;;;;21.84;43.50;99315.49;1712632;83;21037;-72
2022/05/23 08:03:46;;;;;;;6.80;3.00;;;;;;;22.99;39.49;99309.98;1795538;79;22738;-70
2022/05/23 08:06:15;;;;;;;7.15;2.65;;;;;;;23.04;39.79;99311.69;1754228;81;21109;-70
2022/05/23 08:08:41;;;;;;;5.15;2.27;;;;;;;23.14;40.23;99309.73;1756234;81;21139;-72
2022/05/23 08:11:10;;;;;;;9.15;2.80;;;;;;;23.36;40.02;99311.06;1756027;81;21521;-70
2022/05/23 08:13:42;;;;;;;7.20;2.50;;;;;;;23.57;38.74;99315.20;1755577;81;21526;-70
2022/05/23 08:16:08;;;;;;;5.87;2.10;;;;;;;23.64;38.54;99317.59;1769606;80;21051;-70
2022/05/23 08:18:36;;;;;;;5.33;2.98;;;;;;;23.80;37.70;99319.55;1762071;80;21021;-71
2022/05/23 08:21:04;;;;;;;5.40;2.35;;;;;;;23.84;37.40;99319.06;1790524;80;21527;-71
2022/05/23 08:23:34;;;;;;;5.03;2.30;;;;;;;23.85;37.99;99310.48;1790167;80;21048;-70
2022/05/23 08:26:05;;;;;;;9.65;2.98;;;;;;;24.02;37.26;99312.24;1789632;80;21053;-70
2022/05/23 08:28:33;;;;;;;9.85;2.60;;;;;;;24.11;36.96;99308.22;1790656;80;21005;-70
2022/05/23 08:31:00;;;;;;;6.35;2.70;;;;;;;24.17;35.85;99307.57;1790291;80;21584;-70
2022/05/23 08:33:29;;;;;;;6.75;2.58;;;;;;;24.03;35.85;99305.84;1790119;80;21129;-69
2022/05/23 08:35:57;;;;;;;11.22;2.80;;;;;;;23.84;35.88;99300.24;1786833;80;20981;-71
2022/05/23 08:38:25;;;;;;;4.70;2.92;;;;;;;23.72;36.56;99316.30;1790439;80;21092;-72
2022/05/23 08:41:11;;;;;;;5.33;2.87;;;;;;;23.24;36.52;99306.45;1790090;80;21040;-72
2022/05/23 08:43:50;;;;;;;5.62;3.08;;;;;;;22.94;37.23;99308.23;1779776;80;21032;-72
2022/05/23 08:46:32;;;;;;;4.97;2.40;;;;;;;22.94;37.97;99302.87;1790238;80;21326;-70
2022/05/23 08:49:06;;;;;;;8.05;2.95;;;;;;;22.91;37.92;99301.81;1790622;80;20988;-71
2022/05/23 08:51:43;;;;;;;3.85;2.60;;;;;;;22.75;38.39;99303.87;1790140;80;21496;-70
2022/05/23 08:54:18;;;;;;;6.22;2.72;;;;;;;22.57;38.39;99303.91;1790616;80;21076;-71
2022/05/23 08:57:04;;;;;;;6.58;2.87;;;;;;;22.61;38.29;99299.89;1790678;80;21032;-70
2022/05/23 08:59:44;;;;;;;7.40;2.80;;;;;;;22.89;38.12;99306.02;1790335;80;21099;-71
2022/05/23 09:02:18;;;;;;;6.35;2.90;;;;;;;23.35;37.37;99301.80;1788317;80;21032;-71
2022/05/23 09:04:51;;;;;;;5.12;2.92;;;;;;;23.78;36.17;99313.48;1784992;80;21032;-71
2022/05/23 09:07:33;;;;;;;3.45;2.30;;;;;;;24.28;35.73;99306.75;1785121;80;21612;-71
2022/05/23 09:10:04;;;;;;;6.28;2.52;;;;;;;24.66;34.21;99287.48;1785297;80;21129;-70
2022/05/23 09:12:31;;;;;;;12.85;2.50;;;;;;;24.58;33.55;99297.75;1785601;80;21358;-71
2022/05/23 09:14:58;;;;;;;5.20;2.25;;;;;;;24.40;32.75;99299.20;1784802;80;21135;-71
2022/05/23 09:17:30;;;;;;;10.32;2.90;;;;;;;23.93;32.60;99301.13;1784645;80;21548;-70
2022/05/23 09:20:16;;;;;;;5.03;1.87;;;;;;;23.62;33.26;99302.95;1756831;80;21036;-72
2022/05/23 09:22:51;;;;;;;4.25;1.80;;;;;;;23.31;30.31;99307.18;1784560;80;21021;-71
2022/05/23 09:25:25;;;;;;;9.53;1.80;;;;;;;22.98;29.63;99304.22;1784677;80;21774;-70
2022/05/23 09:28:25;;;;;;;4.65;1.92;;;;;;;22.67;29.88;99296.60;1784574;80;20989;-73
2022/05/23 09:30:59;;;;;;;3.65;1.65;;;;;;;22.49;29.80;99288.55;1784647;80;21493;-70
2022/05/23 09:33:29;;;;;;;6.42;1.67;;;;;;;22.70;28.80;99293.59;1739016;80;21055;-70
2022/05/23 09:36:21;;;;;;;2.33;1.50;;;;;;;22.90;28.47;99294.78;1784412;80;22223;-71
2022/05/23 09:38:56;;;;;;;4.17;1.60;;;;;;;22.94;27.11;99294.81;1701658;84;21176;-71
2022/05/23 09:50:09;;;;;;;2.70;1.90;;;;;;;24.00;27.84;99284.67;1785070;80;21068;-70
2022/05/23 09:52:48;;;;;;;2.27;1.95;;;;;;;24.44;27.54;99287.11;1784730;80;21544;-72
2022/05/23 09:55:23;;;;;;;4.55;1.67;;;;;;;24.67;27.38;99290.52;1784828;80;21017;-70
2022/05/23 09:57:54;;;;;;;4.37;1.30;;;;;;;24.45;25.93;99286.08;1757998;80;21044;-71
2022/05/23 10:00:26;;;;;;;4.67;1.80;;;;;;;24.02;27.67;99290.73;1784783;80;21009;-70
2022/05/23 10:03:13;;;;;;;9.55;1.55;;;;;;;23.64;26.45;99295.58;1784588;80;21048;-70
2022/05/23 10:05:49;;;;;;;3.72;1.60;;;;;;;23.17;27.18;99287.95;1785113;80;21108;-71
2022/05/23 10:08:34;;;;;;;5.58;1.80;;;;;;;22.85;28.97;99289.04;1755907;80;21080;-71
2022/05/23 10:11:21;;;;;;;9.90;1.77;;;;;;;22.68;29.18;99299.62;1784712;80;21080;-71
2022/05/23 10:13:57;;;;;;;3.40;1.40;;;;;;;22.49;29.67;99303.81;1773744;80;21508;-72
2022/05/23 10:16:32;;;;;;;3.20;1.60;;;;;;;22.24;29.37;99306.24;1753652;81;21084;-70
2022/05/23 10:19:04;;;;;;;3.02;1.57;;;;;;;22.03;29.72;99304.31;1753519;81;21222;-70
2022/05/23 10:21:38;;;;;;;3.47;1.62;;;;;;;21.77;29.79;99310.38;1753563;81;21020;-71
2022/05/23 10:24:23;;;;;;;3.65;1.52;;;;;;;21.55;29.95;99316.45;1753504;81;21084;-71
2022/05/23 10:27:13;;;;;;;2.33;1.55;;;;;;;21.24;29.88;99311.81;1753486;81;21177;-70
2022/05/23 10:29:55;;;;;;;5.47;1.65;;;;;;;20.96;28.97;99309.55;1729980;81;21056;-71
2022/05/23 10:32:46;;;;;;;2.27;1.37;;;;;;;20.56;28.93;99313.22;1753660;81;21051;-70
2022/05/23 10:35:30;;;;;;;4.03;1.50;;;;;;;20.30;28.75;99317.75;1753427;81;21060;-72
2022/05/23 10:42:07;;;;;;;4.97;1.57;;;;;;;20.10;29.71;99321.37;1753597;81;21036;-70
2022/05/23 10:43:20;;;;;;;5.53;1.50;;;;;;;20.20;31.35;99332.07;1753790;81;21554;-72
2022/05/23 10:46:03;;;;;;;4.17;1.52;;;;;;;20.41;30.04;99319.46;1726173;81;21202;-72
2022/05/23 10:48:40;;;;;;;;;;;;;;;20.56;29.87;99315.89;1756000;81;21040;-70
2022/05/23 10:51:46;;;;;;;3.50;1.70;;;;;;;20.69;30.21;99317.80;1725929;81;20179;-70
2022/05/23 10:54:42;;;;;;;5.60;1.65;;;;;;;20.69;30.96;99320.98;1753291;81;21004;-70
2022/05/23 10:57:29;;;;;;;11.03;1.92;;;;;;;20.56;31.80;99321.25;1753344;81;21092;-72
2022/05/23 11:00:10;;;;;;;4.00;1.55;;;;;;;20.39;32.26;99324.59;1753679;81;21541;-70
2022/05/23 11:02:57;;;;;;;3.77;2.08;;;;;;;20.39;31.45;99316.58;1752770;81;21016;-71
2022/05/23 11:05:51;;;;;;;5.58;2.67;;;;;;;20.54;31.47;99315.16;1747039;82;20997;-72
2022/05/23 11:08:47;;;;;;;5.87;1.72;;;;;;;20.46;32.09;99321.21;1747513;82;21029;-70
2022/05/23 11:11:38;;;;;;;6.55;1.70;;;;;;;20.29;32.95;99321.89;1747586;82;21088;-71
2022/05/23 11:14:19;;;;;;;4.10;1.65;;;;;;;19.82;33.29;99329.16;1762269;80;21139;-71
2022/05/23 11:17:25;;;;;;;3.08;1.60;;;;;;;19.41;34.12;99332.75;1739559;80;22017;-71
2022/05/23 11:20:14;;;;;;;7.55;1.55;;;;;;;19.30;34.76;99340.34;1778337;80;21045;-72
2022/05/23 11:22:47;;;;;;;6.45;1.77;;;;;;;19.39;34.40;99334.20;1778394;80;21565;-71
2022/05/23 11:25:28;;;;;;;7.25;2.05;;;;;;;19.47;34.70;99329.06;1749290;80;21116;-71
2022/05/23 11:34:00;;;;;;;5.50;1.77;;;;;;;19.68;35.86;99332.18;1779195;80;21033;-70
2022/05/23 11:36:44;;;;;;;3.25;1.90;;;;;;;19.78;36.52;99333.08;1777869;80;21037;-70
2022/05/23 11:38:56;;;;;;;4.33;2.30;;;;;;;19.75;35.80;99336.53;1746277;80;21591;-71
2022/05/23 11:41:36;;;;;;;4.42;1.90;;;;;;;19.62;35.82;99336.71;1778720;80;21109;-71
2022/05/23 11:44:08;;;;;;;4.80;1.80;;;;;;;19.60;35.66;99327.98;1778555;80;21013;-71
2022/05/23 11:47:25;;;;;;;6.12;2.37;;;;;;;19.67;35.68;99335.34;1753193;80;21052;-71
2022/05/23 11:50:06;;;;;;;5.80;2.47;;;;;;;19.47;35.62;99334.41;1778927;80;21049;-72
2022/05/23 11:52:48;;;;;;;3.77;2.20;;;;;;;19.24;36.88;99330.21;1778577;80;21001;-72
2022/05/23 11:55:55;;;;;;;5.70;2.17;;;;;;;19.31;37.29;99336.71;1779128;80;21641;-71
2022/05/23 11:58:47;;;;;;;6.72;2.00;;;;;;;19.41;37.20;99337.59;1778486;80;21029;-72
2022/05/23 12:01:20;;;;;;;5.20;2.30;;;;;;;19.63;36.58;99329.91;1772333;80;21564;-72
2022/05/23 12:03:56;;;;;;;8.70;2.17;;;;;;;19.88;36.13;99329.97;1780654;80;21500;-72
2022/05/23 12:06:32;;;;;;;5.87;2.30;;;;;;;20.01;36.36;99334.22;1784546;80;20989;-71
2022/05/23 12:09:03;;;;;;;3.90;2.40;;;;;;;20.10;36.23;99341.41;1784631;80;21124;-70
2022/05/23 12:11:33;;;;;;;6.83;2.33;;;;;;;20.18;35.93;99344.27;1784531;80;21538;-69
2022/05/23 12:14:35;;;;;;;4.80;2.20;;;;;;;20.30;35.45;99341.81;1771070;80;21425;-72
2022/05/23 12:17:09;;;;;;;7.10;2.25;;;;;;;20.45;34.75;99340.06;1754040;81;21481;-71
2022/05/23 12:19:45;;;;;;;11.38;2.00;;;;;;;20.53;34.97;99340.23;1753580;81;21041;-72
2022/05/23 12:22:32;;;;;;;3.70;1.92;;;;;;;20.54;34.10;99336.55;1753491;81;21169;-71
2022/05/23 12:25:10;;;;;;;4.37;1.87;;;;;;;20.51;34.38;99344.87;1753554;81;21032;-71
2022/05/23 12:27:51;;;;;;;3.58;2.10;;;;;;;20.41;34.11;99346.70;1753396;81;21033;-71
2022/05/23 12:30:24;;;;;;;6.17;2.30;;;;;;;20.43;34.77;99340.69;1753680;81;21116;-70
2022/05/23 12:33:00;;;;;;;4.58;2.17;;;;;;;20.46;34.96;99341.77;1753529;81;21048;-70
2022/05/23 12:35:50;;;;;;;3.02;1.85;;;;;;;20.46;34.59;99337.76;1752815;81;21129;-71
2022/05/23 12:38:37;;;;;;;6.33;2.20;;;;;;;20.48;34.32;99337.97;1753722;81;21080;-72
2022/05/23 12:41:44;;;;;;;5.55;2.52;;;;;;;20.61;34.13;99332.36;1753174;81;22198;-71
2022/05/23 12:44:35;;;;;;;4.97;2.25;;;;;;;20.70;33.78;99334.19;1753586;81;21079;-71
2022/05/23 12:47:23;;;;;;;4.22;1.90;;;;;;;20.84;33.95;99324.05;1753357;81;21063;-70
2022/05/23 12:50:19;;;;;;;3.75;1.90;;;;;;;21.14;32.99;99326.56;1751051;81;21060;-71
2022/05/23 12:53:21;;;;;;;8.13;2.27;;;;;;;21.41;31.28;99318.77;1753412;81;21568;-72
2022/05/23 12:56:20;;;;;;;8.58;2.15;;;;;;;21.42;31.99;99332.50;1753431;81;21020;-72
2022/05/23 12:59:12;;;;;;;5.95;1.98;;;;;;;21.41;32.20;99330.32;1753319;81;22102;-71
2022/05/23 13:01:43;;;;;;;4.62;2.30;;;;;;;21.35;32.34;99334.41;1753439;81;21716;-71
2022/05/23 13:04:21;;;;;;;3.80;2.08;;;;;;;21.16;31.80;99339.78;1750849;81;21809;-73